sensor_id;sensor_type;location;lat;lon;timestamp;P1;durP1;ratioP1;P2;durP2;ratioP2
19946;SDS011;10135;50.702;7.276;2022-10-26T05:30:31;1.20;;;1.10;;
19946;SDS011;10135;50.702;7.276;2022-10-26T05:32:32;2.40;;;1.20;;
19946;SDS011;10135;50.702;7.276;2022-10-26T05:34:33;4.63;;;1.30;;
19946;SDS011;10135;50.702;7.276;2022-10-26T05:36:34;1.20;;;1.10;;
19946;SDS011;10135;50.702;7.276;2022-10-26T05:38:34;1.57;;;1.47;;
19946;SDS011;10135;50.702;7.276;2022-10-26T05:40:35;4.00;;;1.33;;
19946;SDS011;10135;50.702;7.276;2022-10-26T05:42:37;4.70;;;1.70;;
19946;SDS011;10135;50.702;7.276;2022-10-26T05:44:37;4.30;;;1.60;;
19946;SDS011;10135;50.702;7.276;2022-10-26T05:46:38;2.17;;;1.63;;
19946;SDS011;10135;50.702;7.276;2022-10-26T05:48:39;1.80;;;1.53;;
19946;SDS011;10135;50.702;7.276;2022-10-26T05:50:39;2.80;;;1.67;;
19946;SDS011;10135;50.702;7.276;2022-10-26T05:52:40;4.80;;;1.70;;
19946;SDS011;10135;50.702;7.276;2022-10-26T05:54:45;2.73;;;1.40;;
19946;SDS011;10135;50.702;7.276;2022-10-26T05:56:46;2.10;;;1.50;;
19946;SDS011;10135;50.702;7.276;2022-10-26T05:58:47;1.87;;;1.33;;
19946;SDS011;10135;50.702;7.276;2022-10-26T06:03:33;1.93;;;1.47;;
19946;SDS011;10135;50.702;7.276;2022-10-26T06:06:06;3.13;;;1.30;;
19946;SDS011;10135;50.702;7.276;2022-10-26T06:08:11;2.07;;;1.50;;
19946;SDS011;10135;50.702;7.276;2022-10-26T06:10:12;3.53;;;1.40;;
19946;SDS011;10135;50.702;7.276;2022-10-26T06:12:14;2.40;;;1.57;;
19946;SDS011;10135;50.702;7.276;2022-10-26T06:14:15;2.13;;;1.53;;
19946;SDS011;10135;50.702;7.276;2022-10-26T06:18:26;1.50;;;1.40;;
19946;SDS011;10135;50.702;7.276;2022-10-26T06:21:14;2.20;;;1.40;;
19946;SDS011;10135;50.702;7.276;2022-10-26T06:23:54;1.20;;;1.20;;
19946;SDS011;10135;50.702;7.276;2022-10-26T06:31:43;2.30;;;1.50;;
19946;SDS011;10135;50.702;7.276;2022-10-26T06:33:45;2.97;;;1.30;;
19946;SDS011;10135;50.702;7.276;2022-10-26T06:35:50;1.40;;;1.30;;
19946;SDS011;10135;50.702;7.276;2022-10-26T06:38:07;2.40;;;1.37;;
19946;SDS011;10135;50.702;7.276;2022-10-26T06:40:16;5.17;;;1.87;;
19946;SDS011;10135;50.702;7.276;2022-10-26T06:42:17;5.00;;;1.30;;
19946;SDS011;10135;50.702;7.276;2022-10-26T06:44:22;4.47;;;1.97;;
19946;SDS011;10135;50.702;7.276;2022-10-26T06:48:51;2.30;;;1.77;;
19946;SDS011;10135;50.702;7.276;2022-10-26T06:50:56;2.30;;;1.60;;
19946;SDS011;10135;50.702;7.276;2022-10-26T06:53:00;1.87;;;1.60;;
19946;SDS011;10135;50.702;7.276;2022-10-26T06:55:24;2.97;;;1.53;;
19946;SDS011;10135;50.702;7.276;2022-10-26T06:57:27;1.80;;;1.47;;
19946;SDS011;10135;50.702;7.276;2022-10-26T06:59:42;3.97;;;1.60;;
19946;SDS011;10135;50.702;7.276;2022-10-26T07:01:51;2.03;;;1.83;;
19946;SDS011;10135;50.702;7.276;2022-10-26T07:03:51;3.27;;;2.00;;
19946;SDS011;10135;50.702;7.276;2022-10-26T07:05:52;1.67;;;1.57;;
19946;SDS011;10135;50.702;7.276;2022-10-26T07:07:53;3.17;;;1.57;;
19946;SDS011;10135;50.702;7.276;2022-10-26T07:09:53;3.43;;;1.80;;
19946;SDS011;10135;50.702;7.276;2022-10-26T07:11:54;2.47;;;1.53;;
19946;SDS011;10135;50.702;7.276;2022-10-26T07:13:55;1.80;;;1.50;;
19946;SDS011;10135;50.702;7.276;2022-10-26T07:15:56;4.10;;;1.63;;
19946;SDS011;10135;50.702;7.276;2022-10-26T07:17:56;2.90;;;1.93;;
19946;SDS011;10135;50.702;7.276;2022-10-26T07:19:57;1.90;;;1.50;;
19946;SDS011;10135;50.702;7.276;2022-10-26T07:21:58;3.37;;;1.80;;
19946;SDS011;10135;50.702;7.276;2022-10-26T07:23:59;2.70;;;1.80;;
19946;SDS011;10135;50.702;7.276;2022-10-26T07:25:59;5.10;;;2.00;;
19946;SDS011;10135;50.702;7.276;2022-10-26T07:28:00;2.70;;;1.70;;
19946;SDS011;10135;50.702;7.276;2022-10-26T07:30:01;6.40;;;1.77;;
19946;SDS011;10135;50.702;7.276;2022-10-26T07:32:02;3.03;;;1.60;;
19946;SDS011;10135;50.702;7.276;2022-10-26T07:34:03;5.37;;;1.67;;
19946;SDS011;10135;50.702;7.276;2022-10-26T07:36:04;1.83;;;1.53;;
19946;SDS011;10135;50.702;7.276;2022-10-26T07:38:06;5.10;;;1.70;;
19946;SDS011;10135;50.702;7.276;2022-10-26T07:40:08;3.83;;;1.90;;
19946;SDS011;10135;50.702;7.276;2022-10-26T07:42:09;4.10;;;1.60;;
19946;SDS011;10135;50.702;7.276;2022-10-26T07:44:09;2.63;;;1.63;;
19946;SDS011;10135;50.702;7.276;2022-10-26T07:46:10;5.50;;;1.60;;
19946;SDS011;10135;50.702;7.276;2022-10-26T07:48:11;1.90;;;1.63;;
19946;SDS011;10135;50.702;7.276;2022-10-26T07:50:12;8.10;;;1.80;;
19946;SDS011;10135;50.702;7.276;2022-10-26T07:52:13;3.13;;;1.70;;
19946;SDS011;10135;50.702;7.276;2022-10-26T07:54:13;2.53;;;1.60;;
19946;SDS011;10135;50.702;7.276;2022-10-26T07:56:14;1.80;;;1.67;;
19946;SDS011;10135;50.702;7.276;2022-10-26T07:58:15;1.93;;;1.80;;
19946;SDS011;10135;50.702;7.276;2022-10-26T08:00:16;3.73;;;1.80;;
19946;SDS011;10135;50.702;7.276;2022-10-26T08:02:16;3.73;;;2.03;;
19946;SDS011;10135;50.702;7.276;2022-10-26T08:04:18;5.70;;;1.70;;
19946;SDS011;10135;50.702;7.276;2022-10-26T08:06:19;4.70;;;2.00;;
19946;SDS011;10135;50.702;7.276;2022-10-26T08:08:21;3.67;;;1.90;;
19946;SDS011;10135;50.702;7.276;2022-10-26T08:10:21;4.70;;;1.90;;
19946;SDS011;10135;50.702;7.276;2022-10-26T08:12:22;3.73;;;2.07;;
19946;SDS011;10135;50.702;7.276;2022-10-26T08:14:23;4.47;;;2.10;;
19946;SDS011;10135;50.702;7.276;2022-10-26T08:16:23;6.27;;;1.73;;
19946;SDS011;10135;50.702;7.276;2022-10-26T08:18:24;4.87;;;2.00;;
19946;SDS011;10135;50.702;7.276;2022-10-26T08:20:25;3.40;;;1.80;;
19946;SDS011;10135;50.702;7.276;2022-10-26T08:22:27;2.10;;;1.70;;
19946;SDS011;10135;50.702;7.276;2022-10-26T08:24:29;5.30;;;2.20;;
19946;SDS011;10135;50.702;7.276;2022-10-26T08:26:30;1.90;;;1.80;;
19946;SDS011;10135;50.702;7.276;2022-10-26T08:28:31;3.43;;;2.00;;
19946;SDS011;10135;50.702;7.276;2022-10-26T08:30:32;7.77;;;2.17;;
19946;SDS011;10135;50.702;7.276;2022-10-26T08:32:33;3.00;;;1.83;;
19946;SDS011;10135;50.702;7.276;2022-10-26T08:34:34;3.93;;;1.93;;
19946;SDS011;10135;50.702;7.276;2022-10-26T08:36:35;2.03;;;1.70;;
19946;SDS011;10135;50.702;7.276;2022-10-26T08:38:35;5.50;;;2.30;;
19946;SDS011;10135;50.702;7.276;2022-10-26T08:40:37;3.93;;;1.73;;
19946;SDS011;10135;50.702;7.276;2022-10-26T08:42:45;2.73;;;1.80;;
19946;SDS011;10135;50.702;7.276;2022-10-26T08:44:52;3.20;;;1.80;;
19946;SDS011;10135;50.702;7.276;2022-10-26T08:47:09;2.97;;;1.70;;
19946;SDS011;10135;50.702;7.276;2022-10-26T08:49:24;3.83;;;1.83;;
19946;SDS011;10135;50.702;7.276;2022-10-26T08:51:31;4.03;;;1.90;;
19946;SDS011;10135;50.702;7.276;2022-10-26T08:56:04;2.10;;;1.83;;
19946;SDS011;10135;50.702;7.276;2022-10-26T08:58:37;2.83;;;2.00;;
19946;SDS011;10135;50.702;7.276;2022-10-26T09:00:49;2.20;;;1.53;;
19946;SDS011;10135;50.702;7.276;2022-10-26T09:02:50;2.37;;;1.67;;
19946;SDS011;10135;50.702;7.276;2022-10-26T09:04:52;4.87;;;2.00;;
19946;SDS011;10135;50.702;7.276;2022-10-26T09:09:28;2.67;;;1.80;;
19946;SDS011;10135;50.702;7.276;2022-10-26T09:14:31;4.13;;;1.57;;
19946;SDS011;10135;50.702;7.276;2022-10-26T09:19:48;4.90;;;1.90;;
19946;SDS011;10135;50.702;7.276;2022-10-26T09:22:06;8.67;;;2.20;;
19946;SDS011;10135;50.702;7.276;2022-10-26T09:24:41;6.00;;;2.47;;
19946;SDS011;10135;50.702;7.276;2022-10-26T09:27:05;1.83;;;1.70;;
19946;SDS011;10135;50.702;7.276;2022-10-26T09:29:22;6.93;;;1.90;;
19946;SDS011;10135;50.702;7.276;2022-10-26T09:31:35;2.03;;;1.87;;
19946;SDS011;10135;50.702;7.276;2022-10-26T09:33:41;2.20;;;1.50;;
19946;SDS011;10135;50.702;7.276;2022-10-26T09:35:43;4.00;;;1.73;;
19946;SDS011;10135;50.702;7.276;2022-10-26T09:37:55;2.97;;;1.90;;
19946;SDS011;10135;50.702;7.276;2022-10-26T09:40:13;1.90;;;1.50;;
19946;SDS011;10135;50.702;7.276;2022-10-26T09:42:45;1.87;;;1.47;;
19946;SDS011;10135;50.702;7.276;2022-10-26T09:45:17;4.13;;;1.67;;
19946;SDS011;10135;50.702;7.276;2022-10-26T09:47:37;1.93;;;1.50;;
19946;SDS011;10135;50.702;7.276;2022-10-26T09:49:51;2.37;;;1.43;;
19946;SDS011;10135;50.702;7.276;2022-10-26T09:51:57;2.70;;;1.80;;
19946;SDS011;10135;50.702;7.276;2022-10-26T09:53:58;2.60;;;1.50;;
19946;SDS011;10135;50.702;7.276;2022-10-26T09:56:03;3.07;;;1.70;;
19946;SDS011;10135;50.702;7.276;2022-10-26T09:58:11;2.40;;;1.93;;
19946;SDS011;10135;50.702;7.276;2022-10-26T10:00:26;3.20;;;2.00;;
19946;SDS011;10135;50.702;7.276;2022-10-26T10:02:37;3.10;;;1.85;;
19946;SDS011;10135;50.702;7.276;2022-10-26T10:04:46;4.50;;;2.00;;
19946;SDS011;10135;50.702;7.276;2022-10-26T10:06:48;1.50;;;1.40;;
19946;SDS011;10135;50.702;7.276;2022-10-26T10:09:03;2.58;;;1.80;;
19946;SDS011;10135;50.702;7.276;2022-10-26T10:11:07;3.40;;;1.60;;
19946;SDS011;10135;50.702;7.276;2022-10-26T10:13:15;3.65;;;1.50;;
19946;SDS011;10135;50.702;7.276;2022-10-26T10:15:17;5.40;;;1.60;;
19946;SDS011;10135;50.702;7.276;2022-10-26T10:17:24;2.63;;;1.67;;
19946;SDS011;10135;50.702;7.276;2022-10-26T10:19:29;1.60;;;1.50;;
19946;SDS011;10135;50.702;7.276;2022-10-26T10:21:38;2.55;;;1.90;;
19946;SDS011;10135;50.702;7.276;2022-10-26T10:23:48;4.20;;;1.73;;
19946;SDS011;10135;50.702;7.276;2022-10-26T10:25:57;2.88;;;1.33;;
19946;SDS011;10135;50.702;7.276;2022-10-26T10:28:07;1.50;;;1.40;;
19946;SDS011;10135;50.702;7.276;2022-10-26T10:30:29;2.13;;;1.70;;
19946;SDS011;10135;50.702;7.276;2022-10-26T10:32:32;2.08;;;1.27;;
19946;SDS011;10135;50.702;7.276;2022-10-26T10:34:33;2.47;;;1.45;;
19946;SDS011;10135;50.702;7.276;2022-10-26T10:36:35;1.98;;;1.48;;
19946;SDS011;10135;50.702;7.276;2022-10-26T10:38:39;6.53;;;1.52;;
19946;SDS011;10135;50.702;7.276;2022-10-26T10:40:48;1.45;;;1.45;;
19946;SDS011;10135;50.702;7.276;2022-10-26T10:42:56;1.85;;;1.63;;
19946;SDS011;10135;50.702;7.276;2022-10-26T10:45:19;1.50;;;1.40;;
19946;SDS011;10135;50.702;7.276;2022-10-26T10:47:29;1.90;;;1.50;;
19946;SDS011;10135;50.702;7.276;2022-10-26T10:49:32;1.88;;;1.27;;
19946;SDS011;10135;50.702;7.276;2022-10-26T10:51:39;2.05;;;1.40;;
19946;SDS011;10135;50.702;7.276;2022-10-26T10:53:44;5.07;;;1.40;;
19946;SDS011;10135;50.702;7.276;2022-10-26T11:01:04;4.15;;;1.52;;
19946;SDS011;10135;50.702;7.276;2022-10-26T11:08:11;2.15;;;1.35;;
19946;SDS011;10135;50.702;7.276;2022-10-26T11:10:25;1.50;;;1.40;;
19946;SDS011;10135;50.702;7.276;2022-10-26T11:12:33;2.17;;;1.20;;
19946;SDS011;10135;50.702;7.276;2022-10-26T11:14:51;2.58;;;1.33;;
19946;SDS011;10135;50.702;7.276;2022-10-26T11:17:22;1.75;;;1.35;;
19946;SDS011;10135;50.702;7.276;2022-10-26T11:19:34;1.52;;;1.35;;
19946;SDS011;10135;50.702;7.276;2022-10-26T11:21:45;1.85;;;1.20;;
19946;SDS011;10135;50.702;7.276;2022-10-26T11:26:34;3.10;;;1.60;;
19946;SDS011;10135;50.702;7.276;2022-10-26T11:29:01;1.65;;;1.55;;
19946;SDS011;10135;50.702;7.276;2022-10-26T11:31:20;2.20;;;1.77;;
19946;SDS011;10135;50.702;7.276;2022-10-26T11:33:32;1.98;;;1.55;;
19946;SDS011;10135;50.702;7.276;2022-10-26T11:38:14;3.60;;;1.90;;
19946;SDS011;10135;50.702;7.276;2022-10-26T11:40:51;1.77;;;1.42;;
19946;SDS011;10135;50.702;7.276;2022-10-26T11:43:04;5.38;;;1.30;;
19946;SDS011;10135;50.702;7.276;2022-10-26T11:47:39;5.45;;;1.40;;
19946;SDS011;10135;50.702;7.276;2022-10-26T11:54:58;1.38;;;1.38;;
19946;SDS011;10135;50.702;7.276;2022-10-26T11:57:01;1.08;;;1.02;;
19946;SDS011;10135;50.702;7.276;2022-10-26T11:59:04;1.30;;;1.20;;
19946;SDS011;10135;50.702;7.276;2022-10-26T12:01:09;2.15;;;1.35;;
19946;SDS011;10135;50.702;7.276;2022-10-26T12:03:16;1.58;;;1.42;;
19946;SDS011;10135;50.702;7.276;2022-10-26T12:07:43;1.80;;;1.30;;
19946;SDS011;10135;50.702;7.276;2022-10-26T12:09:53;1.60;;;1.27;;
19946;SDS011;10135;50.702;7.276;2022-10-26T12:11:59;2.10;;;1.20;;
19946;SDS011;10135;50.702;7.276;2022-10-26T12:17:06;2.38;;;1.20;;
19946;SDS011;10135;50.702;7.276;2022-10-26T12:20:04;1.92;;;1.13;;
19946;SDS011;10135;50.702;7.276;2022-10-26T12:22:32;1.10;;;1.10;;
19946;SDS011;10135;50.702;7.276;2022-10-26T12:24:42;2.60;;;1.27;;
19946;SDS011;10135;50.702;7.276;2022-10-26T12:29:50;1.52;;;1.23;;
19946;SDS011;10135;50.702;7.276;2022-10-26T12:38:55;1.75;;;1.15;;
19946;SDS011;10135;50.702;7.276;2022-10-26T12:45:32;2.22;;;1.17;;
19946;SDS011;10135;50.702;7.276;2022-10-26T12:52:16;1.40;;;1.00;;
19946;SDS011;10135;50.702;7.276;2022-10-26T12:54:45;1.55;;;1.00;;
19946;SDS011;10135;50.702;7.276;2022-10-26T12:57:27;3.75;;;1.10;;
19946;SDS011;10135;50.702;7.276;2022-10-26T12:59:46;2.65;;;1.40;;
19946;SDS011;10135;50.702;7.276;2022-10-26T13:04:21;2.13;;;0.93;;
19946;SDS011;10135;50.702;7.276;2022-10-26T13:09:23;1.10;;;1.00;;
19946;SDS011;10135;50.702;7.276;2022-10-26T13:11:35;1.42;;;1.20;;
19946;SDS011;10135;50.702;7.276;2022-10-26T13:13:37;1.30;;;1.20;;
19946;SDS011;10135;50.702;7.276;2022-10-26T13:15:50;1.02;;;1.00;;
19946;SDS011;10135;50.702;7.276;2022-10-26T13:18:01;1.30;;;1.20;;
19946;SDS011;10135;50.702;7.276;2022-10-26T13:20:19;2.55;;;1.05;;
19946;SDS011;10135;50.702;7.276;2022-10-26T13:22:20;2.13;;;1.10;;
19946;SDS011;10135;50.702;7.276;2022-10-26T13:24:22;1.52;;;1.10;;
19946;SDS011;10135;50.702;7.276;2022-10-26T13:26:28;2.75;;;1.15;;
19946;SDS011;10135;50.702;7.276;2022-10-26T13:30:42;1.88;;;0.95;;
19946;SDS011;10135;50.702;7.276;2022-10-26T13:32:48;0.93;;;0.93;;
19946;SDS011;10135;50.702;7.276;2022-10-26T13:34:53;2.75;;;0.90;;
19946;SDS011;10135;50.702;7.276;2022-10-26T13:39:26;0.93;;;0.93;;
19946;SDS011;10135;50.702;7.276;2022-10-26T13:41:37;1.40;;;0.75;;
19946;SDS011;10135;50.702;7.276;2022-10-26T13:43:43;1.58;;;0.90;;
19946;SDS011;10135;50.702;7.276;2022-10-26T13:45:55;2.40;;;0.82;;
19946;SDS011;10135;50.702;7.276;2022-10-26T13:48:03;0.60;;;0.60;;
19946;SDS011;10135;50.702;7.276;2022-10-26T13:50:14;2.33;;;0.73;;
19946;SDS011;10135;50.702;7.276;2022-10-26T13:52:23;0.70;;;0.70;;
19946;SDS011;10135;50.702;7.276;2022-10-26T13:54:47;0.98;;;0.90;;
19946;SDS011;10135;50.702;7.276;2022-10-26T13:56:58;1.88;;;0.85;;
19946;SDS011;10135;50.702;7.276;2022-10-26T13:59:10;0.70;;;0.70;;
19946;SDS011;10135;50.702;7.276;2022-10-26T14:01:14;0.80;;;0.75;;
19946;SDS011;10135;50.702;7.276;2022-10-26T14:03:17;1.83;;;0.60;;
19946;SDS011;10135;50.702;7.276;2022-10-26T14:05:21;0.65;;;0.63;;
19946;SDS011;10135;50.702;7.276;2022-10-26T14:07:23;0.98;;;0.75;;
19946;SDS011;10135;50.702;7.276;2022-10-26T14:09:50;1.95;;;0.63;;
19946;SDS011;10135;50.702;7.276;2022-10-26T14:11:57;1.08;;;0.90;;
19946;SDS011;10135;50.702;7.276;2022-10-26T14:14:00;1.00;;;0.70;;
19946;SDS011;10135;50.702;7.276;2022-10-26T14:16:05;0.93;;;0.93;;
19946;SDS011;10135;50.702;7.276;2022-10-26T14:18:27;1.00;;;1.00;;
19946;SDS011;10135;50.702;7.276;2022-10-26T14:20:30;0.70;;;0.70;;
19946;SDS011;10135;50.702;7.276;2022-10-26T14:22:31;0.65;;;0.65;;
19946;SDS011;10135;50.702;7.276;2022-10-26T14:24:33;1.67;;;0.80;;
19946;SDS011;10135;50.702;7.276;2022-10-26T14:26:40;0.75;;;0.75;;
19946;SDS011;10135;50.702;7.276;2022-10-26T14:28:44;0.60;;;0.60;;
19946;SDS011;10135;50.702;7.276;2022-10-26T14:30:50;1.70;;;0.60;;
19946;SDS011;10135;50.702;7.276;2022-10-26T14:32:51;0.70;;;0.70;;
19946;SDS011;10135;50.702;7.276;2022-10-26T14:34:52;0.65;;;0.65;;
19946;SDS011;10135;50.702;7.276;2022-10-26T14:36:55;0.63;;;0.63;;
19946;SDS011;10135;50.702;7.276;2022-10-26T14:39:03;0.93;;;0.68;;
19946;SDS011;10135;50.702;7.276;2022-10-26T14:41:15;1.35;;;0.80;;
19946;SDS011;10135;50.702;7.276;2022-10-26T14:43:19;0.70;;;0.70;;
19946;SDS011;10135;50.702;7.276;2022-10-26T14:47:32;0.70;;;0.70;;
19946;SDS011;10135;50.702;7.276;2022-10-26T14:49:35;1.45;;;0.68;;
19946;SDS011;10135;50.702;7.276;2022-10-26T14:51:35;0.73;;;0.73;;
19946;SDS011;10135;50.702;7.276;2022-10-26T14:53:40;2.08;;;0.80;;
19946;SDS011;10135;50.702;7.276;2022-10-26T14:55:50;0.98;;;0.80;;
19946;SDS011;10135;50.702;7.276;2022-10-26T14:57:53;0.80;;;0.80;;
19946;SDS011;10135;50.702;7.276;2022-10-26T15:00:22;0.77;;;0.77;;
19946;SDS011;10135;50.702;7.276;2022-10-26T15:02:24;1.30;;;1.00;;
19946;SDS011;10135;50.702;7.276;2022-10-26T15:04:36;0.68;;;0.68;;
19946;SDS011;10135;50.702;7.276;2022-10-26T15:09:27;0.80;;;0.80;;
19946;SDS011;10135;50.702;7.276;2022-10-26T15:11:56;1.17;;;0.90;;
19946;SDS011;10135;50.702;7.276;2022-10-26T15:13:57;0.80;;;0.80;;
19946;SDS011;10135;50.702;7.276;2022-10-26T15:18:30;1.77;;;0.90;;
19946;SDS011;10135;50.702;7.276;2022-10-26T15:20:35;0.90;;;0.90;;
19946;SDS011;10135;50.702;7.276;2022-10-26T15:22:38;1.63;;;0.63;;
19946;SDS011;10135;50.702;7.276;2022-10-26T15:24:41;1.38;;;1.27;;
19946;SDS011;10135;50.702;7.276;2022-10-26T15:26:42;0.90;;;0.90;;
19946;SDS011;10135;50.702;7.276;2022-10-26T15:28:43;4.40;;;0.70;;
19946;SDS011;10135;50.702;7.276;2022-10-26T15:30:57;3.70;;;0.90;;
19946;SDS011;10135;50.702;7.276;2022-10-26T15:33:16;0.80;;;0.80;;
19946;SDS011;10135;50.702;7.276;2022-10-26T15:37:28;2.17;;;1.45;;
19946;SDS011;10135;50.702;7.276;2022-10-26T15:39:29;1.08;;;0.90;;
19946;SDS011;10135;50.702;7.276;2022-10-26T15:41:31;1.10;;;1.00;;
19946;SDS011;10135;50.702;7.276;2022-10-26T15:43:38;2.35;;;1.15;;
19946;SDS011;10135;50.702;7.276;2022-10-26T15:45:45;1.08;;;1.02;;
19946;SDS011;10135;50.702;7.276;2022-10-26T15:47:47;1.88;;;1.10;;
19946;SDS011;10135;50.702;7.276;2022-10-26T15:49:51;1.88;;;1.10;;
19946;SDS011;10135;50.702;7.276;2022-10-26T15:51:51;2.08;;;0.98;;
19946;SDS011;10135;50.702;7.276;2022-10-26T15:53:52;4.15;;;1.10;;
19946;SDS011;10135;50.702;7.276;2022-10-26T15:55:54;1.17;;;1.15;;
19946;SDS011;10135;50.702;7.276;2022-10-26T15:57:58;1.02;;;0.93;;
19946;SDS011;10135;50.702;7.276;2022-10-26T15:59:59;1.70;;;1.13;;
19946;SDS011;10135;50.702;7.276;2022-10-26T16:01:59;1.73;;;1.15;;
19946;SDS011;10135;50.702;7.276;2022-10-26T16:04:00;2.65;;;1.25;;
19946;SDS011;10135;50.702;7.276;2022-10-26T16:06:01;3.30;;;1.25;;
19946;SDS011;10135;50.702;7.276;2022-10-26T16:08:02;1.40;;;1.30;;
19946;SDS011;10135;50.702;7.276;2022-10-26T16:10:02;1.10;;;1.10;;
19946;SDS011;10135;50.702;7.276;2022-10-26T16:12:04;1.85;;;1.13;;
19946;SDS011;10135;50.702;7.276;2022-10-26T16:14:05;3.92;;;1.75;;
19946;SDS011;10135;50.702;7.276;2022-10-26T16:16:10;1.10;;;0.98;;
19946;SDS011;10135;50.702;7.276;2022-10-26T16:18:13;2.50;;;0.98;;
19946;SDS011;10135;50.702;7.276;2022-10-26T16:20:16;2.70;;;1.20;;
19946;SDS011;10135;50.702;7.276;2022-10-26T16:22:23;3.83;;;1.40;;
19946;SDS011;10135;50.702;7.276;2022-10-26T16:24:25;2.88;;;1.33;;
19946;SDS011;10135;50.702;7.276;2022-10-26T16:26:30;5.45;;;1.20;;
19946;SDS011;10135;50.702;7.276;2022-10-26T16:28:30;1.30;;;1.20;;
19946;SDS011;10135;50.702;7.276;2022-10-26T16:30:31;2.40;;;1.10;;
19946;SDS011;10135;50.702;7.276;2022-10-26T16:32:32;1.45;;;1.15;;
19946;SDS011;10135;50.702;7.276;2022-10-26T16:34:32;3.03;;;2.08;;
19946;SDS011;10135;50.702;7.276;2022-10-26T16:36:33;2.42;;;1.75;;
19946;SDS011;10135;50.702;7.276;2022-10-26T16:38:33;2.00;;;1.73;;
19946;SDS011;10135;50.702;7.276;2022-10-26T16:40:34;1.60;;;1.50;;
19946;SDS011;10135;50.702;7.276;2022-10-26T16:42:35;1.65;;;1.55;;
19946;SDS011;10135;50.702;7.276;2022-10-26T16:44:36;1.55;;;1.40;;
19946;SDS011;10135;50.702;7.276;2022-10-26T16:46:36;3.85;;;1.50;;
19946;SDS011;10135;50.702;7.276;2022-10-26T16:48:38;1.75;;;1.50;;
19946;SDS011;10135;50.702;7.276;2022-10-26T16:50:40;1.63;;;1.52;;
19946;SDS011;10135;50.702;7.276;2022-10-26T16:52:41;1.98;;;1.45;;
19946;SDS011;10135;50.702;7.276;2022-10-26T16:54:42;2.88;;;1.10;;
19946;SDS011;10135;50.702;7.276;2022-10-26T16:56:44;1.40;;;1.30;;
19946;SDS011;10135;50.702;7.276;2022-10-26T16:58:45;1.38;;;1.30;;
19946;SDS011;10135;50.702;7.276;2022-10-26T17:00:46;1.30;;;1.20;;
19946;SDS011;10135;50.702;7.276;2022-10-26T17:02:53;1.73;;;1.50;;
19946;SDS011;10135;50.702;7.276;2022-10-26T17:04:54;2.00;;;1.50;;
19946;SDS011;10135;50.702;7.276;2022-10-26T17:06:54;1.48;;;1.38;;
19946;SDS011;10135;50.702;7.276;2022-10-26T17:08:55;2.08;;;1.35;;
19946;SDS011;10135;50.702;7.276;2022-10-26T17:11:03;2.45;;;1.27;;
19946;SDS011;10135;50.702;7.276;2022-10-26T17:13:08;3.53;;;1.30;;
19946;SDS011;10135;50.702;7.276;2022-10-26T17:15:09;1.63;;;1.30;;
19946;SDS011;10135;50.702;7.276;2022-10-26T17:17:10;3.08;;;1.30;;
19946;SDS011;10135;50.702;7.276;2022-10-26T17:19:10;3.53;;;1.30;;
19946;SDS011;10135;50.702;7.276;2022-10-26T17:21:12;1.25;;;1.25;;
19946;SDS011;10135;50.702;7.276;2022-10-26T17:23:15;1.60;;;1.30;;
19946;SDS011;10135;50.702;7.276;2022-10-26T17:25:17;1.13;;;1.02;;
19946;SDS011;10135;50.702;7.276;2022-10-26T17:27:17;0.90;;;0.90;;
19946;SDS011;10135;50.702;7.276;2022-10-26T17:29:19;1.27;;;1.27;;
19946;SDS011;10135;50.702;7.276;2022-10-26T17:31:19;2.13;;;1.05;;
19946;SDS011;10135;50.702;7.276;2022-10-26T17:33:20;2.35;;;1.33;;
19946;SDS011;10135;50.702;7.276;2022-10-26T17:35:21;3.17;;;1.40;;
19946;SDS011;10135;50.702;7.276;2022-10-26T17:37:21;4.18;;;1.30;;
19946;SDS011;10135;50.702;7.276;2022-10-26T17:39:22;2.95;;;1.88;;
19946;SDS011;10135;50.702;7.276;2022-10-26T17:41:23;6.10;;;4.00;;
19946;SDS011;10135;50.702;7.276;2022-10-26T17:43:24;2.70;;;2.20;;
19946;SDS011;10135;50.702;7.276;2022-10-26T17:45:24;2.28;;;1.52;;
19946;SDS011;10135;50.702;7.276;2022-10-26T17:47:26;1.75;;;1.60;;
19946;SDS011;10135;50.702;7.276;2022-10-26T17:49:26;2.63;;;1.45;;
19946;SDS011;10135;50.702;7.276;2022-10-26T17:51:27;5.03;;;1.60;;
19946;SDS011;10135;50.702;7.276;2022-10-26T17:53:29;1.90;;;1.40;;
19946;SDS011;10135;50.702;7.276;2022-10-26T17:55:30;2.78;;;1.27;;
19946;SDS011;10135;50.702;7.276;2022-10-26T17:57:31;1.80;;;1.70;;
19946;SDS011;10135;50.702;7.276;2022-10-26T17:59:32;3.28;;;1.67;;
19946;SDS011;10135;50.702;7.276;2022-10-26T18:01:33;2.45;;;2.35;;
19946;SDS011;10135;50.702;7.276;2022-10-26T18:03:34;3.00;;;2.80;;
19946;SDS011;10135;50.702;7.276;2022-10-26T18:05:35;6.47;;;3.00;;
19946;SDS011;10135;50.702;7.276;2022-10-26T18:07:35;2.90;;;2.28;;
19946;SDS011;10135;50.702;7.276;2022-10-26T18:09:36;2.30;;;2.17;;
19946;SDS011;10135;50.702;7.276;2022-10-26T18:11:37;2.20;;;2.00;;
19946;SDS011;10135;50.702;7.276;2022-10-26T18:13:37;1.73;;;1.63;;
19946;SDS011;10135;50.702;7.276;2022-10-26T18:15:38;4.55;;;1.88;;
19946;SDS011;10135;50.702;7.276;2022-10-26T18:17:39;1.30;;;1.30;;
19946;SDS011;10135;50.702;7.276;2022-10-26T18:19:40;2.55;;;1.42;;
19946;SDS011;10135;50.702;7.276;2022-10-26T18:21:41;1.60;;;1.30;;
19946;SDS011;10135;50.702;7.276;2022-10-26T18:23:42;2.22;;;1.63;;
19946;SDS011;10135;50.702;7.276;2022-10-26T18:25:42;2.13;;;1.60;;
19946;SDS011;10135;50.702;7.276;2022-10-26T18:27:43;1.30;;;1.30;;
19946;SDS011;10135;50.702;7.276;2022-10-26T18:29:44;3.45;;;1.17;;
19946;SDS011;10135;50.702;7.276;2022-10-26T18:31:44;2.78;;;1.40;;
19946;SDS011;10135;50.702;7.276;2022-10-26T18:33:45;2.13;;;1.20;;
19946;SDS011;10135;50.702;7.276;2022-10-26T18:35:46;1.10;;;1.10;;
19946;SDS011;10135;50.702;7.276;2022-10-26T18:37:47;1.95;;;1.10;;
19946;SDS011;10135;50.702;7.276;2022-10-26T18:39:47;2.10;;;1.25;;
19946;SDS011;10135;50.702;7.276;2022-10-26T18:41:48;1.40;;;1.15;;
19946;SDS011;10135;50.702;7.276;2022-10-26T18:43:50;1.40;;;1.30;;
19946;SDS011;10135;50.702;7.276;2022-10-26T18:46:05;3.08;;;1.20;;
19946;SDS011;10135;50.702;7.276;2022-10-26T18:48:09;1.10;;;1.00;;
19946;SDS011;10135;50.702;7.276;2022-10-26T18:50:09;1.00;;;1.00;;
19946;SDS011;10135;50.702;7.276;2022-10-26T18:52:10;1.50;;;1.10;;
19946;SDS011;10135;50.702;7.276;2022-10-26T18:54:11;1.00;;;1.00;;
19946;SDS011;10135;50.702;7.276;2022-10-26T18:56:13;1.00;;;1.00;;
19946;SDS011;10135;50.702;7.276;2022-10-26T18:58:19;2.47;;;1.10;;
19946;SDS011;10135;50.702;7.276;2022-10-26T19:00:19;1.13;;;0.95;;
19946;SDS011;10135;50.702;7.276;2022-10-26T19:02:20;2.15;;;1.10;;
19946;SDS011;10135;50.702;7.276;2022-10-26T19:04:21;1.20;;;1.00;;
19946;SDS011;10135;50.702;7.276;2022-10-26T19:06:31;1.90;;;1.15;;
19946;SDS011;10135;50.702;7.276;2022-10-26T19:08:34;2.00;;;1.00;;
19946;SDS011;10135;50.702;7.276;2022-10-26T19:10:35;2.63;;;1.23;;
19946;SDS011;10135;50.702;7.276;2022-10-26T19:12:35;2.78;;;1.00;;
19946;SDS011;10135;50.702;7.276;2022-10-26T19:14:36;1.25;;;1.10;;
19946;SDS011;10135;50.702;7.276;2022-10-26T19:16:37;0.98;;;0.95;;
19946;SDS011;10135;50.702;7.276;2022-10-26T19:18:38;1.15;;;1.02;;
19946;SDS011;10135;50.702;7.276;2022-10-26T19:20:38;1.75;;;0.90;;
19946;SDS011;10135;50.702;7.276;2022-10-26T19:22:39;1.10;;;1.00;;
19946;SDS011;10135;50.702;7.276;2022-10-26T19:24:40;1.30;;;1.25;;
19946;SDS011;10135;50.702;7.276;2022-10-26T19:26:44;4.20;;;1.23;;
19946;SDS011;10135;50.702;7.276;2022-10-26T19:28:45;1.00;;;1.00;;
19946;SDS011;10135;50.702;7.276;2022-10-26T19:30:47;2.80;;;1.08;;
19946;SDS011;10135;50.702;7.276;2022-10-26T19:32:47;5.07;;;1.17;;
19946;SDS011;10135;50.702;7.276;2022-10-26T19:34:48;1.85;;;1.33;;
19946;SDS011;10135;50.702;7.276;2022-10-26T19:36:49;2.25;;;1.30;;
19946;SDS011;10135;50.702;7.276;2022-10-26T19:38:50;2.35;;;1.00;;